Time;durP1;ratioP1;P1;durP2;ratioP2;P2;SDS_P1;SDS_P2;PMS_P1;PMS_P2;Temp;Humidity;BMP_temperature;BMP_pressure;BME280_temperature;BME280_humidity;BME280_pressure;Samples;Min_cycle;Max_cycle;Signal;HPM_P1;HPM_P2
2021/12/19 00:03:32;;;;;;;7.53;4.93;;;6.70;99.90;;;;;;12480135;28;20064;-39
2021/12/19 00:09:30;;;;;;;7.93;5.35;;;6.80;99.90;;;;;;12487548;28;20092;-39
2021/12/19 00:15:32;;;;;;;8.45;5.80;;;6.70;99.90;;;;;;12495278;28;20121;-37
2021/12/19 00:21:35;;;;;;;10.27;5.55;;;6.60;99.90;;;;;;12491373;28;20088;-38
2021/12/19 00:27:37;;;;;;;9.98;5.97;;;6.60;99.90;;;;;;12493300;28;20140;-37
2021/12/19 00:33:40;;;;;;;5.85;3.78;;;6.40;99.90;;;;;;12489574;28;20522;-36
2021/12/19 00:39:42;;;;;;;8.27;4.28;;;6.50;99.90;;;;;;12490800;28;20184;-37
2021/12/19 00:45:47;;;;;;;5.97;4.03;;;6.40;99.90;;;;;;12492905;28;20056;-39
2021/12/19 00:51:49;;;;;;;5.30;3.72;;;6.40;99.90;;;;;;12494011;28;20091;-37
2021/12/19 00:57:51;;;;;;;6.38;3.85;;;6.30;99.90;;;;;;12497057;28;20049;-39
2021/12/19 01:03:54;;;;;;;5.82;4.07;;;6.30;99.90;;;;;;12494986;28;20436;-37
2021/12/19 01:09:56;;;;;;;11.00;4.60;;;6.30;99.90;;;;;;12492089;28;20045;-38
2021/12/19 01:16:00;;;;;;;9.88;4.55;;;6.30;99.90;;;;;;12488340;28;20077;-40
2021/12/19 01:22:04;;;;;;;9.20;4.88;;;6.20;99.90;;;;;;12488484;28;20053;-37
2021/12/19 01:28:06;;;;;;;7.45;4.55;;;6.20;99.90;;;;;;12519839;28;20055;-38
2021/12/19 01:34:12;;;;;;;8.65;5.20;;;6.20;99.90;;;;;;12591331;28;20134;-39
2021/12/19 01:40:18;;;;;;;9.82;4.72;;;6.20;99.90;;;;;;12587427;28;20172;-37
2021/12/19 01:46:20;;;;;;;9.98;4.80;;;6.20;99.90;;;;;;12584173;28;20372;-39
2021/12/19 01:52:22;;;;;;;8.15;4.70;;;6.10;99.90;;;;;;12586370;28;20086;-41
2021/12/19 01:58:25;;;;;;;6.53;4.18;;;6.10;99.90;;;;;;12583358;28;20097;-37
2021/12/19 02:04:30;;;;;;;7.38;4.38;;;6.10;99.90;;;;;;12588256;28;20143;-37
2021/12/19 02:10:34;;;;;;;7.05;4.45;;;6.20;99.90;;;;;;12590054;28;20048;-38
2021/12/19 02:16:38;;;;;;;6.70;4.00;;;6.30;99.90;;;;;;12573978;28;20072;-37
2021/12/19 02:22:41;;;;;;;9.18;4.85;;;6.20;99.90;;;;;;12586300;28;20097;-41
2021/12/19 02:28:43;;;;;;;7.45;4.35;;;6.10;99.90;;;;;;12583433;28;20120;-38
2021/12/19 02:34:47;;;;;;;10.00;4.30;;;6.20;99.90;;;;;;12586050;28;20079;-38
2021/12/19 02:53:37;;;;;;;9.98;5.55;;;6.10;99.90;;;;;;12581936;28;20057;-37
2021/12/19 02:59:39;;;;;;;10.52;6.07;;;6.10;99.90;;;;;;12582666;28;20052;-39
2021/12/19 03:05:41;;;;;;;11.27;6.13;;;6.10;99.90;;;;;;12585238;28;20132;-39
2021/12/19 03:17:58;;;;;;;11.40;6.85;;;6.20;99.90;;;;;;12580566;28;20109;-37
2021/12/19 03:24:00;;;;;;;10.63;6.40;;;6.10;99.90;;;;;;12581048;28;20071;-39
2021/12/19 03:30:04;;;;;;;10.77;6.70;;;6.10;99.90;;;;;;12580879;28;20113;-37
2021/12/19 03:36:07;;;;;;;11.83;6.67;;;6.10;99.90;;;;;;12580326;28;20131;-37
2021/12/19 03:42:09;;;;;;;10.88;7.07;;;6.20;99.90;;;;;;12584262;28;20814;-39
2021/12/19 03:48:13;;;;;;;10.52;6.25;;;6.10;99.90;;;;;;12599778;28;20392;-39
2021/12/19 03:54:15;;;;;;;11.40;6.72;;;6.20;99.90;;;;;;12599444;28;20048;-37
2021/12/19 04:00:24;;;;;;;9.75;5.78;;;6.10;99.90;;;;;;12597205;28;20044;-41
2021/12/19 04:06:26;;;;;;;9.70;6.43;;;6.20;99.90;;;;;;12598376;28;20468;-37
2021/12/19 04:12:30;;;;;;;11.07;6.78;;;6.20;99.90;;;;;;12598469;28;20044;-39
2021/12/19 04:18:32;;;;;;;11.98;6.60;;;6.20;99.90;;;;;;12600914;28;20052;-38
2021/12/19 04:24:34;;;;;;;11.90;6.30;;;6.20;99.90;;;;;;12598025;28;20210;-37
2021/12/19 04:30:36;;;;;;;9.95;5.95;;;6.20;99.90;;;;;;12601030;28;20048;-37
2021/12/19 04:36:42;;;;;;;11.85;6.35;;;6.30;99.90;;;;;;12597933;28;20138;-40
2021/12/19 05:02:07;;;;;;;10.68;6.10;;;6.30;99.90;;;;;;12589004;28;20138;-39
2021/12/19 05:14:36;;;;;;;10.55;5.80;;;6.20;99.90;;;;;;12586879;28;20044;-41
2021/12/19 05:20:41;;;;;;;11.13;5.93;;;6.40;99.90;;;;;;12587500;28;20044;-37
2021/12/19 05:26:47;;;;;;;9.98;6.00;;;6.40;99.90;;;;;;12577909;28;20143;-37
2021/12/19 05:32:51;;;;;;;11.15;7.00;;;6.40;99.90;;;;;;12590939;28;20095;-39
2021/12/19 05:45:14;;;;;;;11.00;6.28;;;6.30;99.90;;;;;;12587666;28;20098;-37
2021/12/19 05:51:16;;;;;;;12.70;5.60;;;6.30;99.90;;;;;;12593854;28;20044;-39
2021/12/19 05:57:20;;;;;;;9.35;4.90;;;6.30;99.90;;;;;;12586429;28;20452;-38
2021/12/19 06:03:22;;;;;;;9.07;4.15;;;6.30;99.90;;;;;;12588331;28;20369;-39
2021/12/19 06:09:24;;;;;;;3.25;1.80;;;6.40;99.90;;;;;;12587089;28;20049;-38
2021/12/19 06:15:26;;;;;;;4.70;1.73;;;6.40;99.90;;;;;;12587580;28;20163;-39
2021/12/19 06:21:28;;;;;;;2.40;1.20;;;6.30;99.90;;;;;;12588382;28;20128;-38
2021/12/19 06:27:30;;;;;;;1.67;0.80;;;6.40;99.90;;;;;;12571987;28;20135;-37
2021/12/19 06:33:33;;;;;;;1.25;0.50;;;6.40;99.90;;;;;;12587928;28;20517;-37
2021/12/19 06:39:37;;;;;;;1.50;0.50;;;6.30;99.90;;;;;;12592140;28;20488;-37
2021/12/19 06:45:39;;;;;;;0.93;0.50;;;6.20;99.90;;;;;;12572680;28;20135;-39
2021/12/19 06:51:40;;;;;;;1.02;0.60;;;6.20;99.90;;;;;;12589178;28;20078;-39
2021/12/19 06:57:43;;;;;;;1.88;0.70;;;6.20;99.90;;;;;;12592561;28;22114;-39
2021/12/19 07:03:45;;;;;;;1.77;0.70;;;6.20;99.90;;;;;;12582966;28;20139;-38
2021/12/19 07:09:52;;;;;;;2.25;1.10;;;6.10;99.90;;;;;;12574698;28;20048;-37
2021/12/19 07:15:55;;;;;;;6.70;3.38;;;6.10;99.90;;;;;;12586770;28;20055;-37
2021/12/19 07:21:57;;;;;;;1.88;0.90;;;5.90;99.90;;;;;;12584327;28;20055;-39
2021/12/19 07:27:59;;;;;;;1.40;0.70;;;5.90;99.90;;;;;;12568451;28;20092;-39
2021/12/19 07:34:01;;;;;;;2.10;0.95;;;5.90;99.90;;;;;;12487973;28;20048;-40
2021/12/19 07:40:15;;;;;;;1.85;1.00;;;5.90;99.90;;;;;;12482283;28;20042;-37
2021/12/19 07:46:17;;;;;;;5.43;0.98;;;5.90;99.90;;;;;;12486715;28;20045;-40
2021/12/19 07:52:19;;;;;;;2.50;1.35;;;5.90;99.90;;;;;;12484300;28;20049;-36
2021/12/19 07:58:21;;;;;;;2.50;0.90;;;5.90;99.90;;;;;;12488740;28;20532;-40
2021/12/19 08:04:24;;;;;;;2.78;1.17;;;5.90;99.90;;;;;;12483498;28;20050;-37
2021/12/19 08:16:35;;;;;;;3.45;1.33;;;5.90;99.90;;;;;;12489506;28;20581;-38
2021/12/19 08:22:37;;;;;;;4.10;1.58;;;5.90;99.90;;;;;;12485823;28;20110;-38
2021/12/19 08:28:39;;;;;;;3.85;2.03;;;5.90;99.90;;;;;;12488738;28;20041;-39
2021/12/19 08:34:41;;;;;;;2.53;1.50;;;5.90;99.90;;;;;;12494723;28;20551;-39
2021/12/19 08:40:45;;;;;;;4.07;1.73;;;5.90;99.90;;;;;;12497216;28;20076;-37
2021/12/19 08:46:47;;;;;;;2.47;1.33;;;5.90;99.90;;;;;;12492693;28;20056;-40
2021/12/19 08:52:52;;;;;;;3.88;1.77;;;6.00;99.90;;;;;;12490956;28;20307;-38
2021/12/19 08:58:54;;;;;;;5.00;2.25;;;6.00;99.90;;;;;;12488524;28;20050;-39
2021/12/19 09:04:56;;;;;;;4.30;2.30;;;5.90;99.90;;;;;;12492669;28;20464;-38
2021/12/19 09:10:58;;;;;;;5.65;2.40;;;6.00;99.90;;;;;;12492236;28;20051;-40
2021/12/19 09:17:02;;;;;;;5.60;3.10;;;6.00;99.90;;;;;;12493262;28;20133;-38
2021/12/19 09:23:04;;;;;;;7.57;4.13;;;6.10;99.90;;;;;;12490356;28;20456;-39
2021/12/19 09:29:07;;;;;;;10.27;4.50;;;6.10;99.90;;;;;;12491671;28;20086;-39
2021/12/19 09:35:10;;;;;;;8.50;4.40;;;6.10;99.90;;;;;;12488893;28;24147;-39
2021/12/19 09:41:14;;;;;;;14.68;5.60;;;6.10;99.90;;;;;;12491952;28;20088;-37
2021/12/19 09:47:16;;;;;;;13.40;5.75;;;6.10;99.90;;;;;;12491355;28;20063;-39
2021/12/19 09:53:18;;;;;;;13.30;5.45;;;6.10;99.90;;;;;;12489422;28;20153;-39
2021/12/19 09:59:22;;;;;;;10.75;5.07;;;6.20;99.90;;;;;;12490016;28;20045;-41
2021/12/19 10:05:26;;;;;;;11.38;4.93;;;6.20;99.90;;;;;;12489870;28;20102;-38
2021/12/19 10:11:43;;;;;;;11.27;4.75;;;6.20;99.90;;;;;;12492485;28;20072;-37
2021/12/19 10:17:47;;;;;;;7.55;3.33;;;6.30;99.90;;;;;;12495654;28;20497;-37
2021/12/19 10:23:51;;;;;;;11.57;3.58;;;6.30;99.90;;;;;;12491908;28;20091;-37
2021/12/19 10:29:53;;;;;;;13.40;3.70;;;6.50;99.90;;;;;;12494811;28;20479;-37
2021/12/19 10:35:58;;;;;;;9.80;3.92;;;6.30;99.90;;;;;;12491393;28;20129;-39
2021/12/19 10:42:01;;;;;;;10.93;4.20;;;6.40;99.90;;;;;;12486621;28;20064;-37
2021/12/19 10:48:23;;;;;;;11.13;4.72;;;6.40;99.90;;;;;;12486039;28;20560;-37
2021/12/19 10:54:25;;;;;;;13.32;5.10;;;6.30;99.90;;;;;;12486065;28;20090;-41
2021/12/19 11:00:28;;;;;;;12.25;5.25;;;6.30;99.90;;;;;;12487443;28;20525;-39
2021/12/19 11:06:32;;;;;;;9.02;4.72;;;6.30;99.90;;;;;;12487015;28;20049;-37
2021/12/19 11:12:35;;;;;;;9.75;4.28;;;6.30;99.90;;;;;;12487105;28;20085;-37
2021/12/19 11:18:37;;;;;;;10.05;3.40;;;6.30;99.90;;;;;;12486817;28;20136;-40
2021/12/19 11:24:39;;;;;;;8.05;2.58;;;6.30;99.90;;;;;;12484469;28;20060;-40
2021/12/19 11:30:41;;;;;;;7.25;2.72;;;6.30;99.90;;;;;;12548098;28;20064;-39
2021/12/19 11:36:48;;;;;;;4.65;2.55;;;6.40;99.90;;;;;;12590865;28;20649;-39
2021/12/19 11:43:08;;;;;;;7.38;2.30;;;6.40;99.90;;;;;;12589695;28;20499;-38
2021/12/19 11:49:15;;;;;;;7.88;2.55;;;6.50;99.90;;;;;;12586807;28;20053;-40
2021/12/19 11:55:26;;;;;;;6.20;2.10;;;6.50;99.90;;;;;;12580921;28;20060;-37
2021/12/19 12:01:35;;;;;;;8.68;2.28;;;6.40;99.90;;;;;;12585172;28;20097;-39
2021/12/19 12:08:06;;;;;;;6.38;2.50;;;6.50;99.90;;;;;;12591239;28;20192;-38
2021/12/19 12:14:22;;;;;;;9.93;2.90;;;6.70;99.90;;;;;;12583751;28;20052;-39
2021/12/19 12:20:30;;;;;;;11.65;2.65;;;6.60;99.90;;;;;;12584863;28;20093;-39
2021/12/19 12:26:46;;;;;;;8.27;2.45;;;6.60;99.90;;;;;;12593094;28;20915;-39
2021/12/19 12:32:48;;;;;;;11.77;3.10;;;6.60;99.90;;;;;;12593815;28;20055;-39
2021/12/19 12:38:52;;;;;;;6.28;2.05;;;6.60;99.90;;;;;;12594512;28;20381;-37
2021/12/19 12:45:03;;;;;;;10.02;2.88;;;6.50;99.90;;;;;;12594277;28;20106;-38
2021/12/19 12:51:12;;;;;;;8.73;2.53;;;6.50;99.90;;;;;;12593957;28;20139;-37
2021/12/19 12:57:15;;;;;;;8.73;2.20;;;6.50;99.90;;;;;;12596826;28;20685;-37
2021/12/19 13:03:28;;;;;;;10.20;2.22;;;6.60;99.90;;;;;;12590222;28;20136;-40
2021/12/19 13:09:37;;;;;;;7.95;2.05;;;6.60;99.90;;;;;;12592355;28;20094;-37
2021/12/19 13:15:39;;;;;;;12.07;2.03;;;6.50;99.90;;;;;;12588216;28;20688;-39
2021/12/19 13:21:55;;;;;;;10.27;2.28;;;6.50;99.90;;;;;;12589072;28;20159;-37
2021/12/19 13:28:03;;;;;;;11.30;1.98;;;6.50;99.90;;;;;;12590452;28;20083;-40
2021/12/19 13:34:12;;;;;;;8.10;1.98;;;6.60;99.90;;;;;;12587073;28;20084;-37
2021/12/19 13:40:15;;;;;;;11.35;2.15;;;6.70;99.90;;;;;;12585866;28;20045;-38
2021/12/19 13:46:18;;;;;;;8.85;1.73;;;6.80;99.90;;;;;;12588616;28;20098;-39
2021/12/19 13:52:20;;;;;;;9.68;2.15;;;6.70;99.90;;;;;;12587668;28;20072;-37
2021/12/19 13:58:26;;;;;;;6.40;2.00;;;6.80;99.90;;;;;;12590464;28;20109;-37
2021/12/19 14:04:31;;;;;;;10.18;2.83;;;6.80;99.90;;;;;;12588165;28;20075;-37
2021/12/19 14:10:33;;;;;;;12.07;2.42;;;6.70;99.90;;;;;;12593444;28;20055;-37
2021/12/19 14:16:43;;;;;;;11.77;2.65;;;6.70;99.90;;;;;;12583124;28;20141;-37
2021/12/19 14:22:48;;;;;;;8.65;1.77;;;6.70;99.90;;;;;;12589367;28;20055;-39
2021/12/19 14:28:50;;;;;;;;;;;6.80;99.90;;;;;;12583769;28;20056;-39
2021/12/19 14:35:04;;;;;;;11.70;2.70;;;6.80;99.90;;;;;;12588604;28;19935;-37
2021/12/19 14:41:10;;;;;;;9.52;2.47;;;6.90;99.90;;;;;;12584277;28;20563;-37
2021/12/19 14:47:12;;;;;;;16.25;2.60;;;6.80;99.90;;;;;;12585106;28;20060;-36
2021/12/19 14:53:27;;;;;;;8.73;2.30;;;6.80;99.90;;;;;;12582095;28;20506;-39
2021/12/19 14:59:29;;;;;;;;;;;6.70;99.90;;;;;;12584122;28;20140;-40
2021/12/19 15:05:32;;;;;;;9.48;1.92;;;6.60;99.90;;;;;;12584104;28;20064;-39
2021/12/19 15:11:37;;;;;;;11.30;3.25;;;6.60;99.90;;;;;;12585584;28;20518;-40
2021/12/19 15:17:45;;;;;;;7.47;1.65;;;6.50;99.90;;;;;;12588687;28;20101;-39
2021/12/19 15:23:47;;;;;;;12.43;1.80;;;6.50;99.90;;;;;;12589063;28;20056;-39
2021/12/19 15:29:49;;;;;;;9.55;1.77;;;6.60;99.90;;;;;;12585809;28;20784;-37
2021/12/19 15:35:51;;;;;;;7.13;1.80;;;6.60;99.90;;;;;;12585859;28;20785;-37
2021/12/19 15:41:53;;;;;;;11.95;1.73;;;6.60;99.90;;;;;;12584849;28;20055;-37
2021/12/19 15:47:55;;;;;;;9.63;1.83;;;6.50;99.90;;;;;;12586510;28;20135;-38
2021/12/19 15:53:58;;;;;;;8.32;2.15;;;6.50;99.90;;;;;;12586390;28;20055;-40
2021/12/19 16:00:03;;;;;;;11.32;1.90;;;6.50;99.90;;;;;;12583260;28;20040;-37
2021/12/19 16:06:06;;;;;;;10.48;1.95;;;6.60;99.90;;;;;;12584674;28;20044;-38
2021/12/19 16:12:10;;;;;;;7.78;1.95;;;6.60;99.90;;;;;;12581776;28;20044;-39
2021/12/19 16:18:12;;;;;;;11.07;1.90;;;6.60;99.90;;;;;;12586149;28;20072;-37
2021/12/19 16:24:14;;;;;;;10.05;1.85;;;6.80;99.90;;;;;;12584696;28;20079;-38
2021/12/19 16:30:19;;;;;;;13.18;2.78;;;6.80;99.90;;;;;;12566323;28;20106;-37
2021/12/19 16:36:21;;;;;;;;;;;6.80;99.90;;;;;;12585643;28;20072;-39
2021/12/19 16:48:26;;;;;;;11.88;1.63;;;6.80;99.90;;;;;;12582206;28;20132;-38
2021/12/19 16:54:29;;;;;;;10.35;1.55;;;6.80;99.90;;;;;;12594998;28;20048;-38
2021/12/19 17:00:31;;;;;;;8.73;1.95;;;6.80;99.90;;;;;;12594337;28;20066;-37
2021/12/19 17:06:34;;;;;;;10.07;1.52;;;6.80;99.90;;;;;;12590481;28;20055;-39
2021/12/19 17:12:38;;;;;;;10.20;1.67;;;6.90;99.90;;;;;;12590692;28;20147;-38
2021/12/19 17:18:41;;;;;;;12.70;2.00;;;6.90;99.90;;;;;;12590071;28;20056;-38
2021/12/19 17:24:43;;;;;;;11.38;2.17;;;6.80;99.90;;;;;;12589864;28;20119;-37
2021/12/19 17:30:47;;;;;;;8.20;1.50;;;6.90;99.90;;;;;;12526279;28;20041;-37
2021/12/19 17:36:50;;;;;;;8.50;2.00;;;6.90;99.90;;;;;;12487227;28;20155;-40
2021/12/19 17:42:53;;;;;;;9.02;1.67;;;6.90;99.90;;;;;;12489970;28;20057;-38
2021/12/19 17:48:55;;;;;;;14.20;2.20;;;6.90;99.90;;;;;;12486294;28;20087;-38
2021/12/19 17:54:58;;;;;;;12.10;1.85;;;6.80;99.90;;;;;;12488141;28;20057;-39
2021/12/19 18:01:01;;;;;;;10.98;1.55;;;6.90;99.90;;;;;;12488366;28;20592;-38
2021/12/19 18:07:03;;;;;;;10.45;1.95;;;6.80;99.90;;;;;;12492416;28;20060;-37
2021/12/19 18:13:07;;;;;;;10.68;2.03;;;6.80;99.90;;;;;;12473356;28;20456;-36
2021/12/19 18:19:09;;;;;;;11.05;2.10;;;6.80;99.90;;;;;;12495888;28;20049;-38
2021/12/19 18:25:13;;;;;;;12.10;2.15;;;6.90;99.90;;;;;;12487809;28;20065;-38
2021/12/19 18:31:15;;;;;;;12.10;2.20;;;6.80;99.90;;;;;;12490536;28;20049;-36
2021/12/19 18:37:23;;;;;;;11.57;1.85;;;6.70;99.90;;;;;;12491415;28;20441;-38
2021/12/19 18:43:37;;;;;;;10.68;1.60;;;6.80;99.90;;;;;;12488250;28;20049;-37
2021/12/19 18:49:48;;;;;;;9.73;1.83;;;6.90;99.90;;;;;;12489641;28;20376;-39
2021/12/19 18:55:56;;;;;;;12.20;2.33;;;6.80;99.90;;;;;;12487058;28;20057;-38
2021/12/19 19:02:09;;;;;;;14.13;2.20;;;6.90;99.90;;;;;;12486720;28;20064;-37
2021/12/19 19:08:13;;;;;;;9.53;2.27;;;6.70;99.90;;;;;;12487746;28;20053;-37
2021/12/19 19:14:15;;;;;;;13.10;2.13;;;6.80;99.90;;;;;;12485922;28;20076;-36
2021/12/19 19:20:18;;;;;;;7.85;1.70;;;6.90;99.90;;;;;;12486643;28;20041;-37
2021/12/19 19:26:20;;;;;;;11.55;2.00;;;6.70;99.90;;;;;;12489747;28;20182;-37
2021/12/19 19:32:22;;;;;;;13.23;3.17;;;6.60;99.90;;;;;;12486669;28;20038;-37
2021/12/19 19:48:51;;;;;;;17.35;2.20;;;6.70;99.90;;;;;;12483588;28;20523;-38
2021/12/19 19:51:09;;;;;;;19.33;3.10;;;6.60;99.90;;;;;;12486123;28;20076;-39
2021/12/19 19:57:11;;;;;;;16.75;2.72;;;6.70;99.90;;;;;;12485476;28;20140;-38
2021/12/19 20:03:14;;;;;;;21.15;3.17;;;6.50;99.90;;;;;;12490120;28;20069;-38
2021/12/19 20:09:17;;;;;;;23.48;3.50;;;6.40;99.90;;;;;;12487523;28;20053;-39
2021/12/19 20:15:19;;;;;;;23.40;3.35;;;6.40;99.90;;;;;;12488237;28;20058;-37
2021/12/19 20:21:21;;;;;;;22.75;3.50;;;6.20;99.90;;;;;;12486049;28;20052;-40
2021/12/19 20:27:23;;;;;;;24.35;3.75;;;6.20;99.90;;;;;;12490703;28;20136;-37
2021/12/19 20:33:25;;;;;;;29.25;3.83;;;6.00;99.90;;;;;;12495050;28;20058;-38
2021/12/19 20:39:28;;;;;;;14.75;3.13;;;5.90;99.90;;;;;;12495313;28;20045;-39
2021/12/19 20:45:41;;;;;;;23.77;3.67;;;5.90;99.90;;;;;;12494263;28;20115;-37
2021/12/19 20:51:44;;;;;;;20.45;2.83;;;5.80;99.90;;;;;;12496613;28;20559;-39
2021/12/19 20:57:47;;;;;;;23.13;2.85;;;5.70;99.90;;;;;;12494973;28;20147;-39
2021/12/19 21:03:50;;;;;;;13.93;2.78;;;5.70;99.90;;;;;;12498633;28;20106;-36
2021/12/19 21:09:52;;;;;;;21.10;2.95;;;5.50;99.90;;;;;;12493830;28;20143;-37
2021/12/19 21:22:09;;;;;;;17.10;2.80;;;5.20;99.90;;;;;;12493012;28;20061;-36
2021/12/19 21:28:12;;;;;;;20.02;3.47;;;5.00;99.90;;;;;;12496787;28;20053;-38
2021/12/19 21:34:16;;;;;;;18.52;3.53;;;4.90;99.90;;;;;;12490364;28;20054;-37
2021/12/19 21:40:18;;;;;;;;;;;4.80;99.90;;;;;;12491720;28;20626;-37
2021/12/19 21:46:21;;;;;;;24.52;3.13;;;4.70;99.90;;;;;;12493137;28;19925;-37
2021/12/19 21:52:23;;;;;;;22.08;2.92;;;4.60;99.90;;;;;;12490152;28;20857;-37
2021/12/19 21:58:25;;;;;;;20.80;3.20;;;4.40;99.90;;;;;;12491528;28;20140;-37
2021/12/19 22:04:27;;;;;;;27.00;3.63;;;4.30;99.90;;;;;;12490038;28;20124;-39
2021/12/19 22:10:43;;;;;;;25.90;3.93;;;4.20;99.90;;;;;;12492465;28;20041;-38
2021/12/19 22:16:45;;;;;;;26.17;3.05;;;4.30;99.90;;;;;;12491326;28;20139;-38
2021/12/19 22:22:47;;;;;;;17.02;3.40;;;4.20;99.90;;;;;;12491701;28;20058;-38
2021/12/19 22:28:49;;;;;;;20.25;3.30;;;4.20;99.90;;;;;;12492659;28;20148;-37
2021/12/19 22:34:51;;;;;;;24.95;4.32;;;4.20;99.90;;;;;;12492008;28;20046;-39
2021/12/19 22:40:54;;;;;;;26.20;3.60;;;4.20;99.90;;;;;;12490664;28;20046;-37
2021/12/19 22:46:56;;;;;;;30.00;3.75;;;4.30;99.90;;;;;;12476518;28;20499;-39
2021/12/19 22:53:18;;;;;;;29.00;3.88;;;4.20;99.90;;;;;;12490036;28;20052;-37
2021/12/19 22:59:22;;;;;;;23.58;3.63;;;4.10;99.90;;;;;;12487874;28;20091;-37
2021/12/19 23:05:28;;;;;;;38.78;4.22;;;4.00;99.90;;;;;;12488213;28;20203;-38
2021/12/19 23:11:31;;;;;;;29.80;4.47;;;3.90;99.90;;;;;;12488311;28;21276;-37
2021/12/19 23:17:54;;;;;;;20.55;3.25;;;3.90;99.90;;;;;;12486879;28;20044;-38
2021/12/19 23:23:57;;;;;;;31.83;5.18;;;3.90;99.90;;;;;;12487852;28;20053;-37
2021/12/19 23:30:05;;;;;;;30.40;3.50;;;4.10;99.90;;;;;;12485372;28;20584;-36
2021/12/19 23:36:18;;;;;;;27.70;3.43;;;4.10;99.90;;;;;;12491402;28;20057;-36
2021/12/19 23:42:35;;;;;;;30.02;3.80;;;4.20;99.90;;;;;;12489540;28;20051;-38
2021/12/19 23:48:37;;;;;;;24.48;3.33;;;4.40;99.90;;;;;;12488990;28;20045;-38
2021/12/19 23:54:40;;;;;;;29.33;4.90;;;4.30;99.90;;;;;;12483965;28;20545;-37
